Hauptseite
METAR-TAF:

METAR-TAF

Flughäfen :

Flughafen Hamburg

Hamburg, Deutschland

Breite: 53-38N, Länge: 010-00E, Höhe: 16 m

Beobachtung

Neuester Wetterbericht von vor 34 Minuten, um 21:20 UTC
Wind 4 kt aus Ost
Temperatur 20°C
Luftfeuchtigkeit 46%
Luftdruck 1013 hPa
Sichtweite 10 km oder mehr
keine Wolken unter 1500 m und keine Kumulonimbus oder Gewitterwolken

METAR: EDDH 202120Z 09004KT CAVOK 20/08 Q1013 NOSIG

Zeit: 23:54 (21:54 UTC)

Prognose

Neuester Wetterbericht von vor 4 Stunden und 54 Minuten, um 17:00 UTC
Gültige Prognose vom 20 um 18 UTC bis 21 um 24 UTC
Wind 4 kt aus Ost
Sichtweite 10 km oder mehr
keine Wolken unter 1500 m und keine Kumulonimbus oder Gewitterwolken
Übergehend zu
vom 21 um 07 UTC bis 21 um 09 UTC
Wind 9 kt aus Ost/Südost
Übergehend zu
vom 21 um 17 UTC bis 21 um 19 UTC
Wind 4 kt aus Ost/Nordost

TAF: EDDH 201700Z 2018/2124 08004KT CAVOK BECMG 2107/2109 11009KT BECMG 2117/2119 07004KT

Wetterbeobachtungen und Prognosen von mehr als 4000 Flughäfen (METAR und TAF Bericht).

Die verfügbaren Stationen werden durch gelbe und rote Markierungen auf der Karte dargestellt.

Führen Sie die Maus auf sie, um den Namen der Station zu sehen.

Darauf klicken, um die Beobachtung von Wetterbeobachtungen und Prognosen zu sehen.

Um die Karte zu ändern : klicken Sie auf den grünen Tasten mit einem schwarzen Kreuz Zum Vergrößern, auf den grünen Button mit einem Gedankenstrich zu verkleinern, oder auf die grünen Pfeile für benachbarte Karten.


METAR-TAF: